createdAt,value
2019-05-26T00:00:52.906Z,46878.81
2019-05-26T00:05:48.839Z,46881.83
2019-05-26T00:10:44.749Z,46851.65
2019-05-26T00:15:40.676Z,46845.62
2019-05-26T00:20:36.598Z,46874.79
2019-05-26T00:25:32.522Z,46893.90
2019-05-26T00:30:28.445Z,46882.84
2019-05-26T00:35:24.371Z,46885.86
2019-05-26T00:40:20.622Z,46876.80
2019-05-26T00:45:16.768Z,46862.72
2019-05-26T00:50:13.816Z,46875.80
2019-05-26T00:55:10.249Z,46856.68
2019-05-26T01:00:09.799Z,46909.00
2019-05-26T01:05:06.823Z,46901.95
2019-05-26T01:10:07.577Z,46895.91
2019-05-26T01:15:04.305Z,46861.71
2019-05-26T01:20:00.235Z,46861.71
2019-05-26T01:24:56.149Z,46863.72
2019-05-26T01:29:52.074Z,46875.80
2019-05-26T01:34:48.094Z,46871.77
2019-05-26T01:39:44.025Z,46887.87
2019-05-26T01:44:39.958Z,46887.87
2019-05-26T01:49:36.526Z,46887.87
2019-05-26T01:54:32.766Z,46851.65
2019-05-26T01:59:28.697Z,46855.68
2019-05-26T02:04:24.630Z,46879.82
2019-05-26T02:09:21.177Z,46874.79
2019-05-26T02:14:17.089Z,46889.88
2019-05-26T02:19:13.018Z,46889.88
2019-05-26T02:24:08.959Z,46901.95
2019-05-26T02:29:04.890Z,46901.95
2019-05-26T02:34:00.818Z,46924.09
2019-05-26T02:39:03.018Z,46956.28
2019-05-26T02:43:58.531Z,46925.09
2019-05-26T02:48:54.478Z,46897.93
2019-05-26T02:53:50.409Z,46936.16
2019-05-26T02:58:46.337Z,46926.10
2019-05-26T03:03:42.362Z,46925.09
2019-05-26T03:08:42.223Z,46916.04
2019-05-26T03:13:38.355Z,46899.94
2019-05-26T03:18:34.976Z,46920.06
2019-05-26T03:23:31.206Z,46950.24
2019-05-26T03:28:27.239Z,46900.95
2019-05-26T03:33:23.174Z,46900.95
2019-05-26T03:38:19.353Z,46920.06
2019-05-26T03:43:15.492Z,46935.15
2019-05-26T03:48:11.564Z,46910.00
2019-05-26T03:53:07.491Z,46955.27
2019-05-26T03:58:03.426Z,46936.16
2019-05-26T04:02:59.352Z,46928.11
2019-05-26T04:07:55.289Z,46933.14
2019-05-26T04:12:51.218Z,46917.04
2019-05-26T04:17:47.147Z,46922.07
2019-05-26T04:22:43.070Z,46921.07
2019-05-26T04:27:38.996Z,46948.23
2019-05-26T04:32:34.927Z,46951.25
2019-05-26T04:37:30.850Z,46946.22
2019-05-26T04:42:26.774Z,46981.43
2019-05-26T04:47:22.730Z,46969.36
2019-05-26T04:52:18.627Z,46979.42
2019-05-26T04:57:14.551Z,46975.39
2019-05-26T05:02:10.549Z,47000.54
2019-05-26T05:07:06.470Z,47035.75
2019-05-26T05:12:02.497Z,47054.87
2019-05-26T05:16:58.434Z,47065.94
2019-05-26T05:21:54.371Z,47050.85
2019-05-26T05:26:50.311Z,47083.04
2019-05-26T05:31:46.243Z,47065.94
2019-05-26T05:36:42.175Z,47089.08
2019-05-26T05:41:38.198Z,47060.91
2019-05-26T05:46:34.156Z,47058.89
2019-05-26T05:51:30.087Z,47090.08
2019-05-26T05:56:26.048Z,47105.18
2019-05-26T06:01:21.971Z,47175.60
2019-05-26T06:06:17.908Z,47200.75
2019-05-26T06:11:16.944Z,47268.16
2019-05-26T06:16:11.686Z,47262.12
2019-05-26T06:21:07.614Z,47220.87
2019-05-26T06:26:03.556Z,47228.92
2019-05-26T06:30:59.471Z,47282.25
2019-05-26T06:35:55.405Z,47308.41
2019-05-26T06:40:51.321Z,47328.53
2019-05-26T06:45:47.297Z,47278.22
2019-05-26T06:50:43.221Z,47268.16
2019-05-26T06:55:39.150Z,47270.17
2019-05-26T07:00:35.190Z,47264.14
2019-05-26T07:05:31.900Z,47319.47
2019-05-26T07:10:27.829Z,47290.30
2019-05-26T07:15:23.830Z,47352.68
2019-05-26T07:20:19.779Z,47304.38
2019-05-26T07:25:15.806Z,47356.70
2019-05-26T07:30:12.328Z,47394.93
2019-05-26T07:35:08.810Z,47407.01
2019-05-26T07:40:05.043Z,47374.81
2019-05-26T07:45:00.981Z,47388.90
2019-05-26T07:49:56.907Z,47422.10
2019-05-26T07:54:52.834Z,47392.92
2019-05-26T07:59:48.759Z,47388.90
2019-05-26T08:04:44.687Z,47356.70
2019-05-26T08:09:40.786Z,47464.36
2019-05-26T08:14:36.822Z,47455.30
2019-05-26T08:19:32.750Z,47540.83
2019-05-26T08:24:28.704Z,47527.75
2019-05-26T08:29:24.608Z,47442.22
2019-05-26T08:34:20.542Z,47546.87
2019-05-26T08:39:16.526Z,47574.03
2019-05-26T08:44:12.462Z,47547.87
2019-05-26T08:49:08.409Z,47546.87
2019-05-26T08:54:04.444Z,47510.64
2019-05-26T08:59:00.491Z,47476.43
2019-05-26T09:03:56.524Z,47531.77
2019-05-26T09:08:55.149Z,47471.40
2019-05-26T09:13:55.169Z,47501.59
2019-05-26T09:18:53.603Z,47549.88
2019-05-26T09:23:50.385Z,47579.06
2019-05-26T09:28:46.787Z,47613.27
2019-05-26T09:33:42.977Z,47600.20
2019-05-26T09:38:46.019Z,47488.51
2019-05-26T09:43:43.440Z,47494.54
2019-05-26T09:48:39.370Z,47527.75
2019-05-26T09:53:35.298Z,47471.40
2019-05-26T09:58:31.233Z,47503.60
2019-05-26T10:03:27.165Z,47539.82
2019-05-26T10:08:24.487Z,47446.25
2019-05-26T10:13:31.303Z,47525.73
2019-05-26T10:18:18.354Z,47537.81
2019-05-26T10:23:14.284Z,47526.74
2019-05-26T10:28:10.230Z,47490.52
2019-05-26T10:33:06.226Z,47553.91
2019-05-26T10:38:02.364Z,47569.00
2019-05-26T10:42:58.288Z,47592.14
2019-05-26T10:47:54.263Z,47635.41
2019-05-26T10:52:51.475Z,47727.98
2019-05-26T10:57:49.943Z,47731.00
2019-05-26T11:02:46.077Z,47666.60
2019-05-26T11:07:42.024Z,47699.81
2019-05-26T11:12:37.948Z,47715.91
2019-05-26T11:17:33.945Z,47688.74
2019-05-26T11:22:30.137Z,47714.90
2019-05-26T11:27:26.103Z,47766.22
2019-05-26T11:32:22.217Z,47750.12
2019-05-26T11:37:25.348Z,47669.62
2019-05-26T11:42:22.269Z,47698.80
2019-05-26T11:47:18.331Z,47630.38
2019-05-26T11:52:14.307Z,47658.55
2019-05-26T11:57:10.236Z,47724.96
2019-05-26T12:02:06.367Z,47816.53
2019-05-26T12:07:04.523Z,47816.53
2019-05-26T12:12:00.386Z,47907.10
2019-05-26T12:16:56.312Z,47806.47
2019-05-26T12:21:52.263Z,47872.88
2019-05-26T12:26:48.191Z,47892.00
2019-05-26T12:31:44.174Z,47976.53
2019-05-26T12:36:40.072Z,47956.41
2019-05-26T12:41:37.348Z,47857.79
2019-05-26T12:46:33.666Z,47878.92
2019-05-26T12:51:29.618Z,47909.11
2019-05-26T12:56:25.539Z,47904.08
2019-05-26T13:01:21.472Z,47906.09
2019-05-26T13:06:17.834Z,47965.46
2019-05-26T13:11:13.782Z,47929.23
2019-05-26T13:16:10.048Z,48084.21
2019-05-26T13:21:06.086Z,48025.84
2019-05-26T13:26:02.016Z,47896.03
2019-05-26T13:30:57.951Z,48070.12
2019-05-26T13:35:54.009Z,47971.50
2019-05-26T13:40:49.996Z,47948.36
2019-05-26T13:45:46.089Z,48030.87
2019-05-26T13:50:42.006Z,47970.49
2019-05-26T13:55:38.042Z,48020.81
2019-05-26T14:00:33.975Z,48004.71
2019-05-26T14:05:29.911Z,47959.42
2019-05-26T14:10:31.601Z,47922.19
2019-05-26T14:15:37.215Z,48057.04
2019-05-26T14:20:40.932Z,47990.62
2019-05-26T14:25:37.361Z,48003.70
2019-05-26T14:30:33.587Z,47999.68
2019-05-26T14:35:29.623Z,47944.33
2019-05-26T14:40:25.653Z,47881.94
2019-05-26T14:45:21.680Z,47965.46
2019-05-26T14:50:18.101Z,47908.10
2019-05-26T14:55:14.143Z,47937.29
2019-05-26T15:00:10.672Z,47915.14
2019-05-26T15:05:07.907Z,47843.70
2019-05-26T15:10:05.638Z,47795.40
2019-05-26T15:15:01.779Z,47767.23
2019-05-26T15:20:07.120Z,47787.35
2019-05-26T15:25:04.327Z,47718.93
2019-05-26T15:30:00.253Z,47723.96
2019-05-26T15:34:56.193Z,47743.07
2019-05-26T15:39:52.241Z,47761.19
2019-05-26T15:44:48.170Z,47732.01
2019-05-26T15:49:44.114Z,47759.18
2019-05-26T15:54:40.044Z,47749.11
2019-05-26T15:59:36.060Z,47767.23
2019-05-26T16:04:31.986Z,47786.34
2019-05-26T16:09:27.919Z,47810.50
2019-05-26T16:14:23.859Z,47846.72
2019-05-26T16:19:19.787Z,47857.79
2019-05-26T16:24:16.027Z,47782.32
2019-05-26T16:29:11.959Z,47746.09
2019-05-26T16:34:07.853Z,47792.38
2019-05-26T16:39:08.465Z,47762.20
2019-05-26T16:44:04.459Z,47761.19
2019-05-26T16:49:00.497Z,47808.48
2019-05-26T16:53:56.526Z,47762.20
2019-05-26T16:58:52.456Z,47809.49
2019-05-26T17:03:48.387Z,47806.47
2019-05-26T17:08:46.022Z,47791.37
2019-05-26T17:13:42.053Z,47799.43
2019-05-26T17:18:37.987Z,47716.91
2019-05-26T17:23:34.019Z,47741.06
2019-05-26T17:28:29.944Z,47704.84
2019-05-26T17:33:25.893Z,47718.93
2019-05-26T17:38:24.848Z,47726.98
2019-05-26T17:43:20.883Z,47755.15
2019-05-26T17:48:16.848Z,47715.91
2019-05-26T17:53:12.784Z,47728.99
2019-05-26T17:58:08.726Z,47743.07
2019-05-26T18:03:04.652Z,47687.73
2019-05-26T18:08:04.282Z,47704.84
2019-05-26T18:13:00.995Z,47718.93
2019-05-26T18:17:57.037Z,47702.83
2019-05-26T18:22:53.463Z,47681.70
2019-05-26T18:27:54.838Z,47667.61
2019-05-26T18:32:58.073Z,47662.58
2019-05-26T18:37:59.076Z,47680.69
2019-05-26T18:42:55.988Z,47714.90
2019-05-26T18:48:03.176Z,47731.00
2019-05-26T18:52:53.214Z,47686.73
2019-05-26T18:58:01.036Z,47714.90
2019-05-26T19:03:06.589Z,47693.77
2019-05-26T19:08:06.243Z,47665.60
2019-05-26T19:13:16.784Z,47636.42
2019-05-26T19:18:19.987Z,47613.27
2019-05-26T19:23:15.128Z,47624.34
2019-05-26T19:28:14.424Z,47616.29
2019-05-26T19:38:51.518Z,47572.02
2019-05-26T19:44:00.674Z,47568.00
2019-05-26T19:49:01.827Z,47604.22
2019-05-26T19:53:59.775Z,47573.02
2019-05-26T19:58:56.398Z,47591.14
2019-05-26T20:03:52.934Z,47588.12
2019-05-26T20:08:51.208Z,47573.02
2019-05-26T20:13:47.236Z,47588.12
2019-05-26T20:18:43.175Z,47580.07
2019-05-26T20:23:39.109Z,47572.02
2019-05-26T20:28:35.041Z,47585.10
2019-05-26T20:33:33.925Z,47558.94
2019-05-26T20:38:30.898Z,47608.24
2019-05-26T20:43:29.236Z,47571.01
2019-05-26T20:48:27.107Z,47594.16
2019-05-26T20:53:23.152Z,47549.88
2019-05-26T20:58:19.194Z,47552.90
2019-05-26T21:03:15.225Z,47548.88
2019-05-26T21:08:11.159Z,47541.84
2019-05-26T21:13:07.087Z,47529.76
2019-05-26T21:18:03.118Z,47487.50
2019-05-26T21:22:59.069Z,47517.68
2019-05-26T21:27:55.039Z,47503.60
2019-05-26T21:32:50.975Z,47474.42
2019-05-26T21:37:46.890Z,47469.39
2019-05-26T21:42:42.825Z,47476.43
2019-05-26T21:47:38.896Z,47468.38
2019-05-26T21:52:34.941Z,47471.40
2019-05-26T21:57:30.937Z,47470.39
2019-05-26T22:02:27.030Z,47442.22
2019-05-26T22:07:22.960Z,47454.30
2019-05-26T22:12:18.895Z,47470.39
2019-05-26T22:17:14.924Z,47453.29
2019-05-26T22:22:10.962Z,47429.14
2019-05-26T22:27:06.888Z,47455.30
2019-05-26T22:32:02.923Z,47420.09
2019-05-26T22:36:58.977Z,47422.10
2019-05-26T22:41:54.998Z,47381.86
2019-05-26T22:46:51.243Z,47419.08
2019-05-26T22:51:47.362Z,47420.09
2019-05-26T22:56:43.289Z,47398.96
2019-05-26T23:01:39.230Z,47365.76
2019-05-26T23:06:35.158Z,47409.02
2019-05-26T23:11:31.165Z,47363.74
2019-05-26T23:16:27.093Z,47415.06
2019-05-26T23:21:23.024Z,47364.75
2019-05-26T23:26:18.956Z,47363.74
2019-05-26T23:31:14.882Z,47390.91
2019-05-26T23:36:10.809Z,47351.67
2019-05-26T23:41:06.741Z,47374.81
2019-05-26T23:46:02.670Z,47382.86
2019-05-26T23:50:58.605Z,47383.87
2019-05-26T23:55:54.615Z,47400.97
